sensor_id;sensor_type;location;lat;lon;timestamp;P1;durP1;ratioP1;P2;durP2;ratioP2
69034;SDS011;56091;55.756;37.412;2023-04-25T00:04:14;17.27;;;6.83;;
69034;SDS011;56091;55.756;37.412;2023-04-25T00:09:16;18.10;;;6.35;;
69034;SDS011;56091;55.756;37.412;2023-04-25T00:14:16;18.50;;;7.23;;
69034;SDS011;56091;55.756;37.412;2023-04-25T00:19:18;14.38;;;6.38;;
69034;SDS011;56091;55.756;37.412;2023-04-25T00:24:19;15.13;;;6.50;;
69034;SDS011;56091;55.756;37.412;2023-04-25T00:29:20;15.80;;;6.30;;
69034;SDS011;56091;55.756;37.412;2023-04-25T00:34:21;12.90;;;5.93;;
69034;SDS011;56091;55.756;37.412;2023-04-25T00:39:22;18.65;;;6.95;;
69034;SDS011;56091;55.756;37.412;2023-04-25T00:44:22;15.60;;;6.57;;
69034;SDS011;56091;55.756;37.412;2023-04-25T00:49:24;13.23;;;6.13;;
69034;SDS011;56091;55.756;37.412;2023-04-25T00:54:25;13.40;;;6.60;;
69034;SDS011;56091;55.756;37.412;2023-04-25T00:59:26;13.73;;;6.30;;
69034;SDS011;56091;55.756;37.412;2023-04-25T01:04:28;12.80;;;5.80;;
69034;SDS011;56091;55.756;37.412;2023-04-25T01:09:29;14.73;;;6.13;;
69034;SDS011;56091;55.756;37.412;2023-04-25T01:14:31;24.25;;;6.10;;
69034;SDS011;56091;55.756;37.412;2023-04-25T01:19:35;16.87;;;6.60;;
69034;SDS011;56091;55.756;37.412;2023-04-25T01:24:36;14.23;;;5.82;;
69034;SDS011;56091;55.756;37.412;2023-04-25T01:29:38;13.10;;;5.67;;
69034;SDS011;56091;55.756;37.412;2023-04-25T01:34:39;16.50;;;5.50;;
69034;SDS011;56091;55.756;37.412;2023-04-25T01:39:40;12.33;;;5.67;;
69034;SDS011;56091;55.756;37.412;2023-04-25T01:44:41;13.88;;;5.18;;
69034;SDS011;56091;55.756;37.412;2023-04-25T01:49:42;18.27;;;5.60;;
69034;SDS011;56091;55.756;37.412;2023-04-25T01:54:43;13.73;;;5.93;;
69034;SDS011;56091;55.756;37.412;2023-04-25T01:59:46;12.60;;;5.70;;
69034;SDS011;56091;55.756;37.412;2023-04-25T02:04:55;13.48;;;5.82;;
69034;SDS011;56091;55.756;37.412;2023-04-25T02:09:58;14.47;;;5.90;;
69034;SDS011;56091;55.756;37.412;2023-04-25T02:15:07;14.77;;;5.80;;
69034;SDS011;56091;55.756;37.412;2023-04-25T02:20:15;18.03;;;5.97;;
69034;SDS011;56091;55.756;37.412;2023-04-25T02:25:19;13.45;;;6.00;;
69034;SDS011;56091;55.756;37.412;2023-04-25T02:30:23;15.60;;;6.10;;
69034;SDS011;56091;55.756;37.412;2023-04-25T02:35:27;15.63;;;6.22;;
69034;SDS011;56091;55.756;37.412;2023-04-25T02:40:28;16.90;;;6.20;;
69034;SDS011;56091;55.756;37.412;2023-04-25T02:45:29;18.30;;;6.13;;
69034;SDS011;56091;55.756;37.412;2023-04-25T02:50:30;14.50;;;5.93;;
69034;SDS011;56091;55.756;37.412;2023-04-25T02:55:31;17.17;;;6.25;;
69034;SDS011;56091;55.756;37.412;2023-04-25T03:00:34;13.27;;;6.37;;
69034;SDS011;56091;55.756;37.412;2023-04-25T03:05:35;16.33;;;6.13;;
69034;SDS011;56091;55.756;37.412;2023-04-25T03:10:35;17.10;;;6.03;;
69034;SDS011;56091;55.756;37.412;2023-04-25T03:15:40;16.42;;;6.25;;
69034;SDS011;56091;55.756;37.412;2023-04-25T03:20:42;19.83;;;6.17;;
69034;SDS011;56091;55.756;37.412;2023-04-25T03:25:43;17.30;;;6.55;;
69034;SDS011;56091;55.756;37.412;2023-04-25T03:30:44;17.03;;;6.27;;
69034;SDS011;56091;55.756;37.412;2023-04-25T03:35:45;9.80;;;4.20;;
69034;SDS011;56091;55.756;37.412;2023-04-25T03:40:46;13.40;;;4.60;;
69034;SDS011;56091;55.756;37.412;2023-04-25T03:46:13;12.82;;;5.47;;
69034;SDS011;56091;55.756;37.412;2023-04-25T03:51:20;12.20;;;5.47;;
69034;SDS011;56091;55.756;37.412;2023-04-25T03:56:22;18.92;;;7.55;;
69034;SDS011;56091;55.756;37.412;2023-04-25T04:01:30;17.20;;;6.50;;
69034;SDS011;56091;55.756;37.412;2023-04-25T04:06:31;19.20;;;6.68;;
69034;SDS011;56091;55.756;37.412;2023-04-25T04:11:40;17.27;;;6.70;;
69034;SDS011;56091;55.756;37.412;2023-04-25T04:16:41;19.40;;;6.85;;
69034;SDS011;56091;55.756;37.412;2023-04-25T04:21:43;18.70;;;7.90;;
69034;SDS011;56091;55.756;37.412;2023-04-25T04:26:44;19.63;;;7.75;;
69034;SDS011;56091;55.756;37.412;2023-04-25T04:32:02;18.33;;;7.60;;
69034;SDS011;56091;55.756;37.412;2023-04-25T04:37:05;18.67;;;8.25;;
69034;SDS011;56091;55.756;37.412;2023-04-25T04:42:07;23.97;;;8.70;;
69034;SDS011;56091;55.756;37.412;2023-04-25T04:47:29;23.40;;;8.68;;
69034;SDS011;56091;55.756;37.412;2023-04-25T04:52:47;15.50;;;7.83;;
69034;SDS011;56091;55.756;37.412;2023-04-25T04:58:10;19.17;;;8.40;;
69034;SDS011;56091;55.756;37.412;2023-04-25T05:03:37;21.17;;;8.23;;
69034;SDS011;56091;55.756;37.412;2023-04-25T05:08:56;19.23;;;8.55;;
69034;SDS011;56091;55.756;37.412;2023-04-25T05:14:17;21.23;;;9.17;;
69034;SDS011;56091;55.756;37.412;2023-04-25T05:19:18;19.83;;;9.32;;
69034;SDS011;56091;55.756;37.412;2023-04-25T05:24:54;23.47;;;9.03;;
69034;SDS011;56091;55.756;37.412;2023-04-25T05:30:06;25.10;;;8.30;;
69034;SDS011;56091;55.756;37.412;2023-04-25T05:35:23;16.23;;;9.00;;
69034;SDS011;56091;55.756;37.412;2023-04-25T05:40:25;16.33;;;8.73;;
69034;SDS011;56091;55.756;37.412;2023-04-25T05:45:45;19.47;;;8.80;;
69034;SDS011;56091;55.756;37.412;2023-04-25T05:51:16;16.13;;;8.10;;
69034;SDS011;56091;55.756;37.412;2023-04-25T05:56:41;19.33;;;8.57;;
69034;SDS011;56091;55.756;37.412;2023-04-25T06:01:42;18.35;;;7.97;;
69034;SDS011;56091;55.756;37.412;2023-04-25T06:06:47;19.60;;;7.77;;
69034;SDS011;56091;55.756;37.412;2023-04-25T06:11:48;14.60;;;7.03;;
69034;SDS011;56091;55.756;37.412;2023-04-25T06:16:50;14.80;;;6.80;;
69034;SDS011;56091;55.756;37.412;2023-04-25T06:21:51;21.35;;;7.32;;
69034;SDS011;56091;55.756;37.412;2023-04-25T06:26:53;17.50;;;7.17;;
69034;SDS011;56091;55.756;37.412;2023-04-25T06:31:54;24.23;;;6.95;;
69034;SDS011;56091;55.756;37.412;2023-04-25T06:36:56;13.30;;;6.70;;
69034;SDS011;56091;55.756;37.412;2023-04-25T06:41:57;19.08;;;6.50;;
69034;SDS011;56091;55.756;37.412;2023-04-25T06:47:15;12.27;;;6.13;;
69034;SDS011;56091;55.756;37.412;2023-04-25T06:52:18;17.63;;;6.85;;
69034;SDS011;56091;55.756;37.412;2023-04-25T06:57:20;13.80;;;6.00;;
69034;SDS011;56091;55.756;37.412;2023-04-25T07:02:24;16.38;;;6.32;;
69034;SDS011;56091;55.756;37.412;2023-04-25T07:07:27;13.03;;;5.73;;
69034;SDS011;56091;55.756;37.412;2023-04-25T07:12:31;13.23;;;5.88;;
69034;SDS011;56091;55.756;37.412;2023-04-25T07:17:32;16.70;;;6.07;;
69034;SDS011;56091;55.756;37.412;2023-04-25T07:22:39;18.55;;;6.20;;
69034;SDS011;56091;55.756;37.412;2023-04-25T07:27:40;16.47;;;5.70;;
69034;SDS011;56091;55.756;37.412;2023-04-25T07:33:00;12.25;;;5.38;;
69034;SDS011;56091;55.756;37.412;2023-04-25T07:38:02;15.90;;;5.73;;
69034;SDS011;56091;55.756;37.412;2023-04-25T07:43:03;13.25;;;5.40;;
69034;SDS011;56091;55.756;37.412;2023-04-25T07:48:27;15.93;;;5.30;;
69034;SDS011;56091;55.756;37.412;2023-04-25T07:53:28;11.88;;;4.53;;
69034;SDS011;56091;55.756;37.412;2023-04-25T07:58:35;11.20;;;5.30;;
69034;SDS011;56091;55.756;37.412;2023-04-25T08:03:41;14.07;;;5.60;;
69034;SDS011;56091;55.756;37.412;2023-04-25T08:08:48;20.57;;;5.97;;
69034;SDS011;56091;55.756;37.412;2023-04-25T08:13:52;13.80;;;5.10;;
69034;SDS011;56091;55.756;37.412;2023-04-25T08:18:53;20.50;;;6.30;;
69034;SDS011;56091;55.756;37.412;2023-04-25T08:23:54;14.18;;;5.88;;
69034;SDS011;56091;55.756;37.412;2023-04-25T08:29:02;13.67;;;5.00;;
69034;SDS011;56091;55.756;37.412;2023-04-25T08:34:03;17.65;;;5.60;;
69034;SDS011;56091;55.756;37.412;2023-04-25T08:39:14;15.97;;;4.73;;
69034;SDS011;56091;55.756;37.412;2023-04-25T08:44:29;15.32;;;4.82;;
69034;SDS011;56091;55.756;37.412;2023-04-25T08:49:34;11.03;;;5.03;;
69034;SDS011;56091;55.756;37.412;2023-04-25T08:54:38;17.00;;;4.78;;
69034;SDS011;56091;55.756;37.412;2023-04-25T08:59:45;10.00;;;4.33;;
69034;SDS011;56091;55.756;37.412;2023-04-25T09:04:53;15.13;;;4.85;;
69034;SDS011;56091;55.756;37.412;2023-04-25T09:09:55;16.40;;;4.83;;
69034;SDS011;56091;55.756;37.412;2023-04-25T09:20:31;14.17;;;5.40;;
69034;SDS011;56091;55.756;37.412;2023-04-25T09:25:35;19.38;;;5.13;;
69034;SDS011;56091;55.756;37.412;2023-04-25T09:30:41;14.90;;;4.93;;
69034;SDS011;56091;55.756;37.412;2023-04-25T09:36:07;13.85;;;5.25;;
69034;SDS011;56091;55.756;37.412;2023-04-25T09:41:22;16.97;;;5.20;;
69034;SDS011;56091;55.756;37.412;2023-04-25T09:46:24;13.70;;;4.60;;
69034;SDS011;56091;55.756;37.412;2023-04-25T09:51:29;14.43;;;3.80;;
69034;SDS011;56091;55.756;37.412;2023-04-25T09:56:35;8.95;;;3.70;;
69034;SDS011;56091;55.756;37.412;2023-04-25T10:01:40;10.70;;;3.67;;
69034;SDS011;56091;55.756;37.412;2023-04-25T10:06:54;15.68;;;3.75;;
69034;SDS011;56091;55.756;37.412;2023-04-25T10:11:56;9.90;;;3.53;;
69034;SDS011;56091;55.756;37.412;2023-04-25T10:17:01;11.57;;;3.65;;
69034;SDS011;56091;55.756;37.412;2023-04-25T10:27:13;10.82;;;3.67;;
69034;SDS011;56091;55.756;37.412;2023-04-25T10:32:14;14.07;;;4.07;;
69034;SDS011;56091;55.756;37.412;2023-04-25T10:37:15;9.53;;;4.00;;
69034;SDS011;56091;55.756;37.412;2023-04-25T10:42:16;11.68;;;3.78;;
69034;SDS011;56091;55.756;37.412;2023-04-25T10:47:17;11.60;;;4.00;;
69034;SDS011;56091;55.756;37.412;2023-04-25T10:52:36;12.77;;;4.25;;
69034;SDS011;56091;55.756;37.412;2023-04-25T10:57:40;9.83;;;3.80;;
69034;SDS011;56091;55.756;37.412;2023-04-25T11:02:57;12.95;;;4.45;;
69034;SDS011;56091;55.756;37.412;2023-04-25T11:07:59;8.07;;;4.17;;
69034;SDS011;56091;55.756;37.412;2023-04-25T11:13:01;10.60;;;3.78;;
69034;SDS011;56091;55.756;37.412;2023-04-25T11:18:02;8.77;;;3.50;;
69034;SDS011;56091;55.756;37.412;2023-04-25T11:23:04;9.93;;;3.95;;
69034;SDS011;56091;55.756;37.412;2023-04-25T11:28:04;9.00;;;3.90;;
69034;SDS011;56091;55.756;37.412;2023-04-25T11:33:05;11.05;;;4.03;;
69034;SDS011;56091;55.756;37.412;2023-04-25T11:38:06;14.43;;;3.90;;
69034;SDS011;56091;55.756;37.412;2023-04-25T11:43:07;10.93;;;3.83;;
69034;SDS011;56091;55.756;37.412;2023-04-25T11:48:12;11.53;;;4.13;;
69034;SDS011;56091;55.756;37.412;2023-04-25T11:53:14;11.73;;;3.92;;
69034;SDS011;56091;55.756;37.412;2023-04-25T11:58:17;9.53;;;3.80;;
69034;SDS011;56091;55.756;37.412;2023-04-25T12:03:19;9.63;;;3.78;;
69034;SDS011;56091;55.756;37.412;2023-04-25T12:08:23;10.53;;;3.80;;
69034;SDS011;56091;55.756;37.412;2023-04-25T12:13:25;14.02;;;4.10;;
69034;SDS011;56091;55.756;37.412;2023-04-25T12:18:27;10.23;;;3.30;;
69034;SDS011;56091;55.756;37.412;2023-04-25T12:23:28;10.25;;;3.35;;
69034;SDS011;56091;55.756;37.412;2023-04-25T12:28:29;8.73;;;3.30;;
69034;SDS011;56091;55.756;37.412;2023-04-25T12:33:36;7.93;;;3.20;;
69034;SDS011;56091;55.756;37.412;2023-04-25T12:38:40;7.97;;;3.27;;
69034;SDS011;56091;55.756;37.412;2023-04-25T12:43:42;11.77;;;3.20;;
69034;SDS011;56091;55.756;37.412;2023-04-25T12:48:43;8.77;;;2.87;;
69034;SDS011;56091;55.756;37.412;2023-04-25T12:53:44;9.60;;;3.33;;
69034;SDS011;56091;55.756;37.412;2023-04-25T12:58:45;11.33;;;3.60;;
69034;SDS011;56091;55.756;37.412;2023-04-25T13:03:49;12.25;;;3.50;;
69034;SDS011;56091;55.756;37.412;2023-04-25T13:08:50;12.00;;;3.23;;
69034;SDS011;56091;55.756;37.412;2023-04-25T13:13:53;8.60;;;3.10;;
69034;SDS011;56091;55.756;37.412;2023-04-25T13:18:54;11.95;;;3.30;;
69034;SDS011;56091;55.756;37.412;2023-04-25T13:23:56;10.70;;;3.90;;
69034;SDS011;56091;55.756;37.412;2023-04-25T13:28:57;11.35;;;3.28;;
69034;SDS011;56091;55.756;37.412;2023-04-25T13:33:57;9.00;;;3.27;;
69034;SDS011;56091;55.756;37.412;2023-04-25T13:38:58;8.98;;;3.60;;
69034;SDS011;56091;55.756;37.412;2023-04-25T13:44:02;10.57;;;3.70;;
69034;SDS011;56091;55.756;37.412;2023-04-25T13:49:03;9.52;;;3.92;;
69034;SDS011;56091;55.756;37.412;2023-04-25T13:54:04;9.73;;;3.70;;
69034;SDS011;56091;55.756;37.412;2023-04-25T13:59:05;9.15;;;3.75;;
69034;SDS011;56091;55.756;37.412;2023-04-25T14:04:06;21.37;;;3.70;;
69034;SDS011;56091;55.756;37.412;2023-04-25T14:09:07;11.15;;;3.80;;
69034;SDS011;56091;55.756;37.412;2023-04-25T14:14:13;11.40;;;3.77;;
69034;SDS011;56091;55.756;37.412;2023-04-25T14:19:17;12.77;;;4.10;;
69034;SDS011;56091;55.756;37.412;2023-04-25T14:24:18;9.93;;;5.20;;
69034;SDS011;56091;55.756;37.412;2023-04-25T14:29:19;10.80;;;5.27;;
69034;SDS011;56091;55.756;37.412;2023-04-25T14:34:22;14.48;;;4.90;;
69034;SDS011;56091;55.756;37.412;2023-04-25T14:39:23;11.37;;;4.43;;
69034;SDS011;56091;55.756;37.412;2023-04-25T14:44:24;14.77;;;4.38;;
69034;SDS011;56091;55.756;37.412;2023-04-25T14:49:25;11.10;;;4.60;;
69034;SDS011;56091;55.756;37.412;2023-04-25T14:54:25;11.85;;;4.57;;
69034;SDS011;56091;55.756;37.412;2023-04-25T14:59:29;13.40;;;4.20;;
69034;SDS011;56091;55.756;37.412;2023-04-25T15:04:30;8.35;;;3.95;;
69034;SDS011;56091;55.756;37.412;2023-04-25T15:09:31;8.07;;;3.53;;
69034;SDS011;56091;55.756;37.412;2023-04-25T15:14:31;8.00;;;4.00;;
69034;SDS011;56091;55.756;37.412;2023-04-25T15:19:34;7.90;;;3.97;;
69034;SDS011;56091;55.756;37.412;2023-04-25T15:24:34;11.52;;;4.05;;
69034;SDS011;56091;55.756;37.412;2023-04-25T15:29:35;11.57;;;3.73;;
69034;SDS011;56091;55.756;37.412;2023-04-25T15:34:37;10.02;;;4.30;;
69034;SDS011;56091;55.756;37.412;2023-04-25T15:39:37;8.23;;;4.00;;
69034;SDS011;56091;55.756;37.412;2023-04-25T15:44:38;15.82;;;4.22;;
69034;SDS011;56091;55.756;37.412;2023-04-25T15:49:42;11.13;;;4.20;;
69034;SDS011;56091;55.756;37.412;2023-04-25T15:54:43;11.25;;;4.60;;
69034;SDS011;56091;55.756;37.412;2023-04-25T15:59:44;15.43;;;5.00;;
69034;SDS011;56091;55.756;37.412;2023-04-25T16:04:44;10.43;;;4.47;;
69034;SDS011;56091;55.756;37.412;2023-04-25T16:09:48;11.75;;;4.88;;
69034;SDS011;56091;55.756;37.412;2023-04-25T16:14:49;13.77;;;4.73;;
69034;SDS011;56091;55.756;37.412;2023-04-25T16:19:50;11.38;;;5.10;;
69034;SDS011;56091;55.756;37.412;2023-04-25T16:24:51;14.50;;;4.70;;
69034;SDS011;56091;55.756;37.412;2023-04-25T16:29:55;10.85;;;4.38;;
69034;SDS011;56091;55.756;37.412;2023-04-25T16:34:56;15.47;;;4.70;;
69034;SDS011;56091;55.756;37.412;2023-04-25T16:39:56;14.95;;;5.03;;
69034;SDS011;56091;55.756;37.412;2023-04-25T16:44:57;10.47;;;4.40;;
69034;SDS011;56091;55.756;37.412;2023-04-25T16:50:00;13.55;;;4.30;;
69034;SDS011;56091;55.756;37.412;2023-04-25T16:55:05;14.83;;;4.50;;
69034;SDS011;56091;55.756;37.412;2023-04-25T17:00:09;15.45;;;4.63;;
69034;SDS011;56091;55.756;37.412;2023-04-25T17:05:12;10.60;;;4.47;;
69034;SDS011;56091;55.756;37.412;2023-04-25T17:10:13;10.52;;;4.10;;
69034;SDS011;56091;55.756;37.412;2023-04-25T17:15:14;12.30;;;4.60;;
69034;SDS011;56091;55.756;37.412;2023-04-25T17:20:15;12.43;;;4.20;;
69034;SDS011;56091;55.756;37.412;2023-04-25T17:25:16;8.83;;;4.27;;
69034;SDS011;56091;55.756;37.412;2023-04-25T17:30:16;11.27;;;4.27;;
69034;SDS011;56091;55.756;37.412;2023-04-25T17:35:17;15.02;;;4.50;;
69034;SDS011;56091;55.756;37.412;2023-04-25T17:40:21;10.07;;;4.73;;
69034;SDS011;56091;55.756;37.412;2023-04-25T17:45:23;10.27;;;4.30;;
69034;SDS011;56091;55.756;37.412;2023-04-25T17:50:24;12.17;;;4.17;;
69034;SDS011;56091;55.756;37.412;2023-04-25T17:55:29;10.27;;;4.30;;
69034;SDS011;56091;55.756;37.412;2023-04-25T18:00:30;15.60;;;4.00;;
69034;SDS011;56091;55.756;37.412;2023-04-25T18:05:32;10.30;;;3.45;;
69034;SDS011;56091;55.756;37.412;2023-04-25T18:10:33;11.90;;;4.03;;
69034;SDS011;56091;55.756;37.412;2023-04-25T18:15:38;14.40;;;3.85;;
69034;SDS011;56091;55.756;37.412;2023-04-25T18:20:42;8.47;;;3.73;;
69034;SDS011;56091;55.756;37.412;2023-04-25T18:25:42;10.50;;;4.18;;
69034;SDS011;56091;55.756;37.412;2023-04-25T18:30:44;9.73;;;3.97;;
69034;SDS011;56091;55.756;37.412;2023-04-25T18:35:48;15.40;;;4.68;;
69034;SDS011;56091;55.756;37.412;2023-04-25T18:40:49;12.33;;;4.07;;
69034;SDS011;56091;55.756;37.412;2023-04-25T18:45:50;18.02;;;4.60;;
69034;SDS011;56091;55.756;37.412;2023-04-25T18:50:51;13.40;;;5.03;;
69034;SDS011;56091;55.756;37.412;2023-04-25T18:55:55;12.18;;;4.72;;
69034;SDS011;56091;55.756;37.412;2023-04-25T19:00:55;12.57;;;4.03;;
69034;SDS011;56091;55.756;37.412;2023-04-25T19:05:59;13.07;;;3.95;;
69034;SDS011;56091;55.756;37.412;2023-04-25T19:11:01;10.77;;;3.97;;
69034;SDS011;56091;55.756;37.412;2023-04-25T19:16:08;11.55;;;4.20;;
69034;SDS011;56091;55.756;37.412;2023-04-25T19:21:09;11.80;;;4.10;;
69034;SDS011;56091;55.756;37.412;2023-04-25T19:26:10;9.75;;;4.15;;
69034;SDS011;56091;55.756;37.412;2023-04-25T19:31:11;13.07;;;4.67;;
69034;SDS011;56091;55.756;37.412;2023-04-25T19:36:12;10.40;;;4.38;;
69034;SDS011;56091;55.756;37.412;2023-04-25T19:41:13;13.67;;;4.70;;
69034;SDS011;56091;55.756;37.412;2023-04-25T19:46:14;9.10;;;4.18;;
69034;SDS011;56091;55.756;37.412;2023-04-25T19:51:15;11.20;;;4.73;;
69034;SDS011;56091;55.756;37.412;2023-04-25T19:56:16;12.47;;;5.10;;
69034;SDS011;56091;55.756;37.412;2023-04-25T20:01:17;11.23;;;4.70;;
69034;SDS011;56091;55.756;37.412;2023-04-25T20:06:21;9.90;;;4.67;;
69034;SDS011;56091;55.756;37.412;2023-04-25T20:11:22;12.27;;;4.82;;
69034;SDS011;56091;55.756;37.412;2023-04-25T20:16:23;14.27;;;4.87;;
69034;SDS011;56091;55.756;37.412;2023-04-25T20:21:24;12.95;;;5.20;;
69034;SDS011;56091;55.756;37.412;2023-04-25T20:26:26;10.60;;;5.10;;
69034;SDS011;56091;55.756;37.412;2023-04-25T20:31:29;15.55;;;5.10;;
69034;SDS011;56091;55.756;37.412;2023-04-25T20:36:35;13.40;;;6.07;;
69034;SDS011;56091;55.756;37.412;2023-04-25T20:41:37;12.45;;;5.43;;
69034;SDS011;56091;55.756;37.412;2023-04-25T20:46:39;18.50;;;7.87;;
69034;SDS011;56091;55.756;37.412;2023-04-25T20:51:40;16.33;;;7.18;;
69034;SDS011;56091;55.756;37.412;2023-04-25T20:56:42;10.50;;;5.33;;
69034;SDS011;56091;55.756;37.412;2023-04-25T21:01:43;13.50;;;5.10;;
69034;SDS011;56091;55.756;37.412;2023-04-25T21:06:44;13.27;;;4.50;;
69034;SDS011;56091;55.756;37.412;2023-04-25T21:11:46;8.30;;;3.20;;
69034;SDS011;56091;55.756;37.412;2023-04-25T21:16:47;8.03;;;3.20;;
69034;SDS011;56091;55.756;37.412;2023-04-25T21:21:47;6.95;;;3.10;;
69034;SDS011;56091;55.756;37.412;2023-04-25T21:26:48;8.70;;;3.13;;
69034;SDS011;56091;55.756;37.412;2023-04-25T21:31:49;9.77;;;3.50;;
69034;SDS011;56091;55.756;37.412;2023-04-25T21:36:53;6.97;;;3.47;;
69034;SDS011;56091;55.756;37.412;2023-04-25T21:41:56;10.27;;;3.45;;
69034;SDS011;56091;55.756;37.412;2023-04-25T21:46:57;8.37;;;4.37;;
69034;SDS011;56091;55.756;37.412;2023-04-25T21:51:58;8.63;;;3.50;;
69034;SDS011;56091;55.756;37.412;2023-04-25T21:56:59;7.23;;;2.90;;
69034;SDS011;56091;55.756;37.412;2023-04-25T22:02:00;7.70;;;2.90;;
69034;SDS011;56091;55.756;37.412;2023-04-25T22:07:01;10.00;;;2.60;;
69034;SDS011;56091;55.756;37.412;2023-04-25T22:12:02;7.47;;;2.40;;
69034;SDS011;56091;55.756;37.412;2023-04-25T22:17:04;6.23;;;2.27;;
69034;SDS011;56091;55.756;37.412;2023-04-25T22:22:05;6.35;;;2.60;;
69034;SDS011;56091;55.756;37.412;2023-04-25T22:27:07;14.93;;;3.23;;
69034;SDS011;56091;55.756;37.412;2023-04-25T22:32:09;8.15;;;2.80;;
69034;SDS011;56091;55.756;37.412;2023-04-25T22:37:10;6.13;;;3.00;;
69034;SDS011;56091;55.756;37.412;2023-04-25T22:42:10;10.00;;;3.70;;
69034;SDS011;56091;55.756;37.412;2023-04-25T22:47:11;8.40;;;3.42;;
69034;SDS011;56091;55.756;37.412;2023-04-25T22:52:13;9.20;;;3.50;;
69034;SDS011;56091;55.756;37.412;2023-04-25T22:57:13;8.80;;;3.50;;
69034;SDS011;56091;55.756;37.412;2023-04-25T23:02:19;13.00;;;3.70;;
69034;SDS011;56091;55.756;37.412;2023-04-25T23:07:20;10.40;;;3.90;;
69034;SDS011;56091;55.756;37.412;2023-04-25T23:12:21;9.68;;;4.10;;
69034;SDS011;56091;55.756;37.412;2023-04-25T23:17:24;12.13;;;3.90;;
69034;SDS011;56091;55.756;37.412;2023-04-25T23:22:46;8.43;;;4.28;;
69034;SDS011;56091;55.756;37.412;2023-04-25T23:27:47;10.00;;;4.57;;
69034;SDS011;56091;55.756;37.412;2023-04-25T23:32:48;10.30;;;5.05;;
69034;SDS011;56091;55.756;37.412;2023-04-25T23:37:49;10.77;;;5.27;;
69034;SDS011;56091;55.756;37.412;2023-04-25T23:42:49;10.17;;;4.93;;
69034;SDS011;56091;55.756;37.412;2023-04-25T23:47:50;9.18;;;4.60;;
69034;SDS011;56091;55.756;37.412;2023-04-25T23:52:51;9.53;;;4.43;;
69034;SDS011;56091;55.756;37.412;2023-04-25T23:57:58;8.20;;;4.65;;
